Time;durP1;ratioP1;P1;durP2;ratioP2;P2;SDS_P1;SDS_P2;PMS_P1;PMS_P2;Temp;Humidity;BMP_temperature;BMP_pressure;BME280_temperature;BME280_humidity;BME280_pressure;Samples;Min_cycle;Max_cycle;Signal;HPM_P1;HPM_P2
2021/03/29 00:01:47;;;;;;;8.18;4.60;;;;;;;3.25;46.35;101089.22;5010863;28;20044;-57
2021/03/29 00:04:13;;;;;;;7.32;4.32;;;;;;;3.22;45.65;101081.38;5010975;28;20109;-56
2021/03/29 00:06:40;;;;;;;10.35;4.45;;;;;;;3.38;45.50;101097.66;5010460;28;20382;-58
2021/03/29 00:09:08;;;;;;;8.52;4.60;;;;;;;3.37;45.17;101101.22;5010290;28;20033;-59
2021/03/29 00:11:35;;;;;;;7.70;4.40;;;;;;;3.34;45.33;101093.38;5008944;28;20437;-59
2021/03/29 00:14:02;;;;;;;10.23;4.15;;;;;;;3.24;44.96;101076.91;5010547;28;20490;-57
2021/03/29 00:16:29;;;;;;;7.32;4.25;;;;;;;3.39;45.02;101104.69;5042196;28;20042;-57
2021/03/29 00:18:55;;;;;;;9.75;5.00;;;;;;;3.23;45.34;101092.81;5010264;28;20030;-59
2021/03/29 00:21:22;;;;;;;8.25;4.28;;;;;;;3.25;45.31;101107.75;5009807;28;20057;-58
2021/03/29 00:23:47;;;;;;;9.13;4.80;;;;;;;3.13;45.16;101102.81;5012885;28;20054;-57
2021/03/29 00:26:14;;;;;;;9.90;4.40;;;;;;;3.06;45.49;101107.44;5013430;28;20061;-59
2021/03/29 00:28:40;;;;;;;7.82;4.18;;;;;;;3.06;45.37;101098.63;5012819;28;20045;-55
2021/03/29 00:31:08;;;;;;;10.45;4.68;;;;;;;3.01;45.62;101118.13;5014072;28;20037;-59
2021/03/29 00:33:35;;;;;;;10.05;4.68;;;;;;;2.98;45.42;101120.00;5013968;28;20041;-61
2021/03/29 00:36:01;;;;;;;10.43;4.28;;;;;;;2.71;45.69;101091.63;5013439;28;20188;-58
2021/03/29 00:38:29;;;;;;;9.75;4.45;;;;;;;1.93;45.76;100976.53;5014196;28;20062;-56
2021/03/29 00:41:00;;;;;;;12.68;4.57;;;;;;;2.89;45.82;101129.03;5013873;28;20557;-58
2021/03/29 00:43:32;;;;;;;7.97;4.65;;;;;;;2.44;46.42;101067.69;5012127;28;20036;-57
2021/03/29 00:46:00;;;;;;;6.78;4.35;;;;;;;2.82;46.53;101138.06;5012588;28;20046;-56
2021/03/29 00:48:29;;;;;;;8.70;4.63;;;;;;;2.91;46.21;101131.66;5008254;28;20057;-59
2021/03/29 00:51:00;;;;;;;7.63;4.38;;;;;;;2.81;46.81;101131.03;5011141;28;20089;-58
2021/03/29 00:53:26;;;;;;;11.75;4.63;;;;;;;2.75;46.38;101133.88;5012534;28;20155;-55
2021/03/29 00:55:53;;;;;;;7.78;4.63;;;;;;;2.73;46.41;101140.06;5018950;28;20485;-60
2021/03/29 00:58:25;;;;;;;9.18;4.88;;;;;;;2.70;46.87;101139.25;5024284;28;20121;-56
2021/03/29 01:00:59;;;;;;;9.98;5.13;;;;;;;2.60;46.74;101128.06;5012105;28;20057;-59
2021/03/29 01:03:30;;;;;;;14.13;4.90;;;;;;;2.55;47.48;101143.19;5013231;28;20032;-59
2021/03/29 01:06:07;;;;;;;7.88;4.60;;;;;;;2.48;47.61;101133.69;5012126;28;20418;-60
2021/03/29 01:08:35;;;;;;;10.20;4.63;;;;;;;2.44;47.52;101141.69;5045276;28;20042;-55
2021/03/29 01:11:09;;;;;;;10.05;5.03;;;;;;;2.30;47.41;101122.66;5013006;28;20034;-57
2021/03/29 01:13:38;;;;;;;8.57;4.57;;;;;;;2.38;47.49;101139.19;5011991;28;20064;-60
2021/03/29 01:16:06;;;;;;;7.13;4.65;;;;;;;2.31;47.33;101134.13;5012449;28;20044;-60
2021/03/29 01:18:34;;;;;;;11.10;5.03;;;;;;;2.22;47.83;101135.22;5011898;28;20040;-58
2021/03/29 01:21:08;;;;;;;11.23;4.68;;;;;;;2.12;47.96;101137.22;5013522;28;20041;-59
2021/03/29 01:23:35;;;;;;;13.17;4.90;;;;;;;2.30;47.80;101141.16;5010675;28;20514;-58
2021/03/29 01:26:16;;;;;;;10.85;4.72;;;;;;;1.92;47.77;101093.66;5012662;28;20049;-61
2021/03/29 01:28:42;;;;;;;11.52;5.32;;;;;;;2.28;47.32;101125.34;5013386;28;20072;-60
2021/03/29 01:31:09;;;;;;;7.72;4.93;;;;;;;2.27;47.73;101143.88;5013115;28;20084;-59
2021/03/29 01:33:36;;;;;;;10.75;5.00;;;;;;;2.31;47.96;101158.75;5012440;28;20544;-56
2021/03/29 01:36:03;;;;;;;10.73;4.95;;;;;;;2.29;47.78;101153.53;5011876;28;20117;-60
2021/03/29 01:38:31;;;;;;;8.13;4.75;;;;;;;2.20;47.76;101152.88;5011688;28;20029;-60
2021/03/29 01:40:58;;;;;;;10.85;4.88;;;;;;;1.98;48.14;101130.47;5011712;28;20034;-58
2021/03/29 01:43:26;;;;;;;7.97;5.05;;;;;;;2.19;47.50;101148.50;5012458;28;20030;-57
2021/03/29 01:45:54;;;;;;;8.35;4.55;;;;;;;2.24;47.60;101157.19;5027991;28;20034;-60
2021/03/29 01:48:21;;;;;;;10.35;5.00;;;;;;;2.01;47.92;101137.47;5010959;28;20095;-56
2021/03/29 01:50:47;;;;;;;9.68;5.20;;;;;;;2.09;47.90;101175.13;5012470;28;20037;-56
2021/03/29 01:53:14;;;;;;;8.68;4.97;;;;;;;2.14;48.03;101167.09;5012716;28;20398;-56
2021/03/29 01:55:41;;;;;;;8.88;4.30;;;;;;;2.19;47.97;101164.38;5012685;28;20046;-57
2021/03/29 01:58:10;;;;;;;9.57;5.03;;;;;;;2.21;47.79;101165.19;5012099;28;20037;-56
2021/03/29 02:00:47;;;;;;;11.75;5.18;;;;;;;2.08;47.96;101152.25;5011023;28;20030;-55
2021/03/29 02:03:13;;;;;;;8.05;4.65;;;;;;;2.17;47.87;101185.53;5012467;28;20034;-58
2021/03/29 02:05:41;;;;;;;9.05;4.88;;;;;;;2.28;47.45;101174.69;5012878;28;20216;-60
2021/03/29 02:08:07;;;;;;;12.02;5.00;;;;;;;1.66;47.51;101075.78;5012010;28;20470;-59
2021/03/29 02:10:35;;;;;;;9.15;4.60;;;;;;;1.31;47.42;101043.16;5012673;28;20406;-59
2021/03/29 02:13:05;;;;;;;8.60;4.75;;;;;;;1.88;47.61;101149.22;5011739;28;20030;-59
2021/03/29 02:15:32;;;;;;;8.75;5.00;;;;;;;2.02;47.45;101184.13;5012057;28;20038;-61
2021/03/29 02:17:59;;;;;;;9.55;4.75;;;;;;;2.09;47.49;101193.63;5010626;28;20440;-61
2021/03/29 02:20:29;;;;;;;9.68;4.70;;;;;;;2.05;47.38;101188.44;5012294;28;20119;-60
2021/03/29 02:22:55;;;;;;;8.93;4.53;;;;;;;1.94;47.12;101176.34;5009314;28;20057;-59
2021/03/29 02:25:24;;;;;;;6.70;3.88;;;;;;;1.99;47.18;101203.53;5010353;28;20034;-57
2021/03/29 02:27:50;;;;;;;8.68;4.40;;;;;;;1.92;47.36;101193.13;5012239;28;20037;-59
2021/03/29 02:30:21;;;;;;;12.90;4.35;;;;;;;1.86;47.29;101189.72;5012145;28;20026;-58
2021/03/29 02:32:48;;;;;;;11.07;4.90;;;;;;;2.12;46.67;101198.84;5011920;28;20029;-59
2021/03/29 02:35:15;;;;;;;9.52;4.38;;;;;;;1.95;47.40;101195.72;5011392;28;20423;-58
2021/03/29 02:37:54;;;;;;;7.85;4.63;;;;;;;1.80;47.72;101187.25;5011096;28;20063;-59
2021/03/29 02:40:21;;;;;;;6.85;4.25;;;;;;;1.79;47.15;101206.63;4992396;28;20077;-60
2021/03/29 02:42:49;;;;;;;10.70;5.00;;;;;;;1.24;47.56;101147.94;4992398;28;20061;-58
2021/03/29 02:45:17;;;;;;;11.05;5.00;;;;;;;1.81;47.09;101218.03;4991897;28;20042;-58
2021/03/29 02:47:44;;;;;;;7.68;4.43;;;;;;;1.75;46.98;101223.44;5008011;28;20404;-59
2021/03/29 02:50:17;;;;;;;8.80;4.80;;;;;;;1.61;47.26;101188.53;5011066;28;20049;-62
2021/03/29 02:52:46;;;;;;;8.77;4.47;;;;;;;1.72;47.02;101202.38;5011581;28;20033;-55
2021/03/29 02:55:13;;;;;;;8.73;4.72;;;;;;;1.67;47.10;101209.50;5011444;28;20078;-59
2021/03/29 02:57:43;;;;;;;10.48;4.97;;;;;;;1.69;46.99;101213.03;5011172;28;20397;-57
2021/03/29 03:00:19;;;;;;;12.68;5.00;;;;;;;1.48;47.34;101196.72;5010284;28;20029;-58
2021/03/29 03:02:45;;;;;;;;;;;;;;;1.79;46.54;101217.19;5011359;28;20040;-59
2021/03/29 03:05:11;;;;;;;;;;;;;;;1.81;45.58;101222.41;5010578;28;20388;-61
2021/03/29 03:07:38;;;;;;;9.65;4.63;;;;;;;1.57;46.60;101225.56;5010480;28;19922;-59
2021/03/29 03:10:09;;;;;;;8.45;4.50;;;;;;;1.39;47.19;101196.91;5010532;28;20042;-56
2021/03/29 03:12:36;;;;;;;13.02;4.97;;;;;;;1.53;46.89;101218.63;5042915;28;20030;-58
2021/03/29 03:15:08;;;;;;;11.68;5.10;;;;;;;0.94;47.32;101137.97;5011045;28;20437;-61
2021/03/29 03:17:34;;;;;;;11.05;5.30;;;;;;;1.50;47.05;101234.50;5011427;28;20091;-60
2021/03/29 03:20:00;;;;;;;9.50;4.80;;;;;;;1.46;47.08;101230.22;5010645;28;20041;-56
2021/03/29 03:22:26;;;;;;;11.10;5.13;;;;;;;1.20;47.26;101193.75;5025171;28;20064;-56
2021/03/29 03:24:59;;;;;;;12.40;5.10;;;;;;;1.56;47.33;101242.31;5003669;28;20656;-55
2021/03/29 03:27:25;;;;;;;8.27;4.68;;;;;;;1.42;46.90;101202.09;5010604;28;20038;-54
2021/03/29 03:29:50;;;;;;;8.50;4.78;;;;;;;1.60;46.69;101224.63;5009725;28;20041;-58
2021/03/29 03:32:17;;;;;;;8.13;4.38;;;;;;;1.68;46.61;101233.25;5009684;28;20034;-57
2021/03/29 03:34:43;;;;;;;10.23;4.93;;;;;;;1.85;46.37;101243.47;5011078;28;20119;-56
2021/03/29 03:37:15;;;;;;;10.13;4.72;;;;;;;2.03;45.69;101248.38;5010699;28;20045;-61
2021/03/29 03:39:44;;;;;;;12.45;5.88;;;;;;;1.68;45.72;101163.72;4992790;28;20124;-56
2021/03/29 03:42:12;;;;;;;14.13;4.72;;;;;;;2.78;44.67;101244.88;5010920;28;20052;-60
2021/03/29 03:44:39;;;;;;;8.25;4.82;;;;;;;3.85;42.17;101234.00;5009961;28;20034;-57
2021/03/29 03:47:05;;;;;;;11.15;4.95;;;;;;;4.87;39.10;101216.63;5010652;28;20545;-56
2021/03/29 03:49:32;;;;;;;10.45;5.32;;;;;;;5.78;37.57;101185.88;5010917;28;20181;-58
2021/03/29 03:51:59;;;;;;;9.25;5.05;;;;;;;7.01;36.19;101251.03;5008312;28;20130;-58
2021/03/29 03:54:25;;;;;;;9.48;4.90;;;;;;;7.88;34.33;101230.34;5006861;28;20061;-58
2021/03/29 03:56:52;;;;;;;11.65;5.38;;;;;;;8.48;33.11;101216.78;5008320;28;20034;-59
2021/03/29 03:59:18;;;;;;;15.27;4.97;;;;;;;9.37;32.07;101249.72;5012237;28;20030;-61
2021/03/29 04:02:06;;;;;;;11.57;4.90;;;;;;;10.01;30.81;101246.31;5012260;28;20034;-62
2021/03/29 04:04:32;;;;;;;7.70;5.05;;;;;;;10.62;29.57;101247.38;5012198;28;20405;-62
2021/03/29 04:06:59;;;;;;;8.60;4.88;;;;;;;11.27;28.98;101256.06;5012216;28;20159;-59
2021/03/29 04:09:52;;;;;;;9.20;5.13;;;;;;;11.89;27.76;101248.72;5011775;28;20048;-60
2021/03/29 04:12:11;;;;;;;9.50;4.75;;;;;;;12.79;26.31;101256.38;5012836;28;20129;-59
2021/03/29 04:14:38;;;;;;;10.82;5.20;;;;;;;12.78;25.35;101182.97;5014657;28;20042;-58
2021/03/29 04:17:05;;;;;;;13.68;5.22;;;;;;;13.65;24.74;101254.13;5012079;28;20026;-55
2021/03/29 04:19:31;;;;;;;9.23;4.75;;;;;;;14.16;23.94;101261.25;4994590;28;20505;-60
2021/03/29 04:21:56;;;;;;;11.88;5.45;;;;;;;14.35;23.22;101268.00;5013333;28;20124;-58
2021/03/29 04:24:22;;;;;;;8.70;4.80;;;;;;;14.86;22.68;101261.56;5014139;28;20506;-59
2021/03/29 04:26:47;;;;;;;12.23;5.22;;;;;;;15.38;21.50;101234.22;5014121;28;20050;-60
2021/03/29 04:29:13;;;;;;;10.13;5.68;;;;;;;16.10;21.23;101266.41;5011563;28;20080;-58
2021/03/29 04:31:39;;;;;;;10.93;5.40;;;;;;;16.63;20.54;101252.13;5013966;28;20050;-59
2021/03/29 04:34:04;;;;;;;10.23;6.13;;;;;;;17.06;19.84;101264.78;5013504;28;20030;-59
2021/03/29 04:36:31;;;;;;;11.70;5.57;;;;;;;16.89;19.20;101212.06;5014030;28;20081;-59
2021/03/29 04:38:56;;;;;;;12.63;5.35;;;;;;;17.58;18.81;101268.53;5007121;28;20030;-62
2021/03/29 04:41:22;;;;;;;9.40;5.15;;;;;;;18.01;18.38;101264.75;5011397;28;20604;-61
2021/03/29 04:43:47;;;;;;;10.75;5.45;;;;;;;18.73;17.46;101252.91;5011408;28;20026;-60
2021/03/29 04:46:13;;;;;;;9.48;5.38;;;;;;;19.48;16.95;101252.25;5013133;28;20045;-60
2021/03/29 04:48:39;;;;;;;9.68;5.40;;;;;;;20.05;16.05;101267.66;5013904;28;20045;-62
2021/03/29 04:51:05;;;;;;;15.27;5.68;;;;;;;20.68;15.55;101273.28;5011082;28;20040;-60
2021/03/29 04:53:31;;;;;;;13.27;5.88;;;;;;;21.13;15.13;101242.41;5012869;28;20120;-59
2021/03/29 04:55:56;;;;;;;9.38;5.07;;;;;;;21.62;14.49;101252.75;5014163;28;20038;-59
2021/03/29 04:58:22;;;;;;;9.38;5.55;;;;;;;21.45;14.38;101246.34;5013054;28;20030;-62
2021/03/29 05:00:47;;;;;;;12.70;6.00;;;;;;;21.49;14.02;101268.69;5013033;28;20038;-61
2021/03/29 05:03:13;;;;;;;12.90;5.22;;;;;;;22.28;13.47;101262.25;5010564;28;20041;-59
2021/03/29 05:05:38;;;;;;;10.85;5.10;;;;;;;23.23;12.83;101252.81;5013078;28;20553;-58
2021/03/29 05:08:04;;;;;;;9.73;5.43;;;;;;;24.37;11.97;101268.22;5012440;28;20520;-59
2021/03/29 05:10:30;;;;;;;10.75;5.13;;;;;;;24.77;11.41;101274.47;5012117;28;20501;-59
2021/03/29 05:12:55;;;;;;;13.55;5.43;;;;;;;24.89;11.15;101274.03;5013223;28;20037;-60
2021/03/29 05:15:21;;;;;;;14.00;5.43;;;;;;;25.18;10.79;101266.94;5013070;28;20088;-59
2021/03/29 05:17:46;;;;;;;9.57;4.70;;;;;;;25.56;10.47;101277.91;5013208;28;20042;-58
2021/03/29 05:20:12;;;;;;;11.95;4.80;;;;;;;25.34;10.47;101268.69;5012857;28;20065;-59
2021/03/29 05:22:38;;;;;;;7.50;4.70;;;;;;;25.19;10.25;101287.84;5011143;28;20065;-59
2021/03/29 05:25:05;;;;;;;8.57;4.50;;;;;;;25.34;9.98;101287.84;5012376;28;20038;-60
2021/03/29 05:27:30;;;;;;;9.85;4.18;;;;;;;25.60;9.71;101281.97;5012992;28;20049;-60
2021/03/29 05:29:56;;;;;;;12.30;4.32;;;;;;;25.79;9.19;101271.47;5012093;28;20494;-59
2021/03/29 05:32:24;;;;;;;9.52;4.38;;;;;;;26.78;8.78;101283.03;5010243;28;20064;-61
2021/03/29 05:34:52;;;;;;;8.18;4.05;;;;;;;27.71;8.30;101301.41;5010894;28;20033;-60
2021/03/29 05:37:19;;;;;;;8.13;3.60;;;;;;;27.88;7.96;101288.16;5010059;28;20038;-60
2021/03/29 05:39:46;;;;;;;11.45;4.18;;;;;;;28.10;7.82;101288.03;5010154;28;20523;-60
2021/03/29 05:42:11;;;;;;;11.15;4.20;;;;;;;28.54;7.63;101276.78;5010910;28;20046;-56
2021/03/29 05:44:38;;;;;;;7.78;3.50;;;;;;;28.89;7.13;101295.94;5010996;28;20084;-60
2021/03/29 05:47:04;;;;;;;10.02;3.70;;;;;;;29.11;6.71;101298.50;5007067;28;20473;-60
2021/03/29 05:49:31;;;;;;;8.80;4.10;;;;;;;29.53;6.53;101301.91;5009137;28;20034;-62
2021/03/29 05:51:57;;;;;;;5.72;3.47;;;;;;;29.61;6.52;101304.44;5008665;28;20044;-58
2021/03/29 05:54:23;;;;;;;9.15;3.58;;;;;;;30.26;6.47;101283.44;5008591;28;20187;-61
2021/03/29 05:56:49;;;;;;;8.10;3.90;;;;;;;31.13;6.00;101286.75;5002213;28;20520;-62
2021/03/29 05:59:33;;;;;;;8.38;3.88;;;;;;;30.97;5.98;101297.28;4981204;28;20305;-62
2021/03/29 06:02:00;;;;;;;9.45;3.38;;;;;;;31.38;5.68;101299.75;5007498;28;20104;-61
2021/03/29 06:04:49;;;;;;;10.07;3.58;;;;;;;32.65;5.75;101281.63;5008904;28;20386;-61
2021/03/29 06:07:14;;;;;;;6.25;3.50;;;;;;;32.98;4.67;101309.94;5008143;28;20065;-61
2021/03/29 06:09:40;;;;;;;14.40;3.92;;;;;;;33.20;4.74;101298.28;5001197;28;20053;-60
2021/03/29 06:12:08;;;;;;;14.48;4.00;;;;;;;33.05;4.93;101266.31;5000715;28;20037;-62
2021/03/29 06:14:34;;;;;;;8.48;3.38;;;;;;;33.38;4.52;101257.63;5008752;28;20034;-63
2021/03/29 06:17:03;;;;;;;10.60;4.00;;;;;;;32.18;4.50;101312.75;5010459;28;20124;-64
2021/03/29 06:19:46;;;;;;;6.22;3.38;;;;;;;31.98;4.71;101312.13;5010613;28;20137;-62
2021/03/29 06:22:21;;;;;;;9.05;3.45;;;;;;;31.11;4.71;101317.38;5010533;28;20038;-64
2021/03/29 06:24:53;;;;;;;12.27;3.72;;;;;;;30.51;4.93;101310.34;5011284;28;20100;-64
2021/03/29 06:27:19;;;;;;;6.25;3.00;;;;;;;30.36;5.06;101305.94;5011227;28;20049;-65
2021/03/29 06:29:45;;;;;;;6.95;3.40;;;;;;;30.55;4.66;101313.47;5011011;28;20049;-63
2021/03/29 06:32:19;;;;;;;9.57;2.97;;;;;;;31.45;4.46;101329.03;5010168;28;20445;-64
2021/03/29 06:34:45;;;;;;;7.22;2.80;;;;;;;31.53;4.58;101316.84;5011251;28;20042;-63
2021/03/29 06:37:11;;;;;;;8.07;2.70;;;;;;;31.44;4.24;101324.56;5023235;28;20061;-64
2021/03/29 06:39:41;;;;;;;6.63;3.30;;;;;;;31.52;4.40;101323.44;5008207;28;20490;-64
2021/03/29 06:42:07;;;;;;;8.63;3.00;;;;;;;31.70;4.30;101330.91;5011094;28;20077;-64
2021/03/29 06:44:35;;;;;;;7.55;2.80;;;;;;;31.71;4.00;101329.00;5010257;28;20533;-63
2021/03/29 06:47:11;;;;;;;8.13;2.97;;;;;;;32.32;3.54;101337.53;5010784;28;20117;-64
2021/03/29 06:49:49;;;;;;;9.27;2.72;;;;;;;33.57;3.36;101322.22;5011383;28;20091;-64
2021/03/29 06:52:34;;;;;;;8.25;2.75;;;;;;;34.54;3.08;101330.16;5010893;28;20452;-66
2021/03/29 06:55:26;;;;;;;7.25;2.17;;;;;;;34.79;2.98;101352.03;5009247;28;20124;-66
2021/03/29 06:58:02;;;;;;;6.15;2.30;;;;;;;33.77;2.70;101299.63;5007378;28;20132;-63
2021/03/29 07:00:33;;;;;;;4.88;2.00;;;;;;;33.86;2.95;101345.38;5005989;28;20116;-63
2021/03/29 07:03:04;;;;;;;4.00;2.33;;;;;;;32.86;2.87;101353.44;5008567;28;20040;-64
2021/03/29 07:05:30;;;;;;;7.43;2.08;;;;;;;33.15;3.33;101332.28;5010401;28;20038;-64
2021/03/29 07:07:57;;;;;;;5.43;2.17;;;;;;;34.06;2.89;101352.50;5011193;28;20049;-63
2021/03/29 07:10:23;;;;;;;4.60;2.28;;;;;;;34.80;2.78;101319.50;5010262;28;20147;-63
2021/03/29 07:12:50;;;;;;;9.60;2.45;;;;;;;35.73;2.11;101337.75;5010820;28;20124;-63
2021/03/29 07:15:16;;;;;;;9.52;3.03;;;;;;;36.53;2.37;101336.56;5011214;28;20030;-63
2021/03/29 07:17:44;;;;;;;9.18;2.78;;;;;;;37.20;1.96;101351.16;5010638;28;20049;-63
2021/03/29 07:20:15;;;;;;;5.63;2.47;;;;;;;36.96;1.59;101290.09;5010617;28;20121;-63
2021/03/29 07:22:42;;;;;;;9.65;2.95;;;;;;;36.91;1.90;101320.75;5010173;28;20057;-64
2021/03/29 07:25:15;;;;;;;9.32;3.08;;;;;;;37.60;1.87;101329.41;5011090;28;20510;-63
2021/03/29 07:27:47;;;;;;;4.90;2.80;;;;;;;37.72;1.44;101329.19;5010451;28;20145;-62
2021/03/29 07:30:15;;;;;;;11.88;3.50;;;;;;;38.24;1.61;101332.25;5009810;28;20083;-62
2021/03/29 07:32:52;;;;;;;5.38;3.13;;;;;;;38.60;1.37;101340.78;5041415;28;20065;-63
2021/03/29 07:35:19;;;;;;;7.32;2.90;;;;;;;37.97;1.53;101359.25;5010265;28;20110;-62
2021/03/29 07:37:54;;;;;;;3.75;2.72;;;;;;;38.09;1.65;101347.84;5010350;28;20124;-63
2021/03/29 07:40:19;;;;;;;5.05;3.22;;;;;;;37.75;1.32;101342.63;5010021;28;20034;-62
2021/03/29 07:42:47;;;;;;;8.23;2.80;;;;;;;36.43;1.82;101261.94;5010156;28;20096;-64
2021/03/29 07:45:24;;;;;;;5.78;2.70;;;;;;;36.74;1.73;101345.97;5010325;28;20038;-64
2021/03/29 07:47:54;;;;;;;5.57;2.50;;;;;;;36.22;1.87;101350.94;5010068;28;20490;-64
2021/03/29 07:50:26;;;;;;;8.68;2.70;;;;;;;35.62;2.07;101356.25;5009850;28;20486;-63
2021/03/29 07:52:54;;;;;;;5.25;2.80;;;;;;;34.72;2.31;101345.78;5010798;28;20581;-63
2021/03/29 07:55:21;;;;;;;9.70;2.53;;;;;;;34.15;2.36;101361.31;5010668;28;20033;-62
2021/03/29 07:57:49;;;;;;;5.32;2.20;;;;;;;33.31;2.26;101343.78;5008420;28;20033;-63
2021/03/29 08:00:24;;;;;;;3.80;1.70;;;;;;;32.45;2.36;101365.06;5009393;28;20034;-62
2021/03/29 08:02:51;;;;;;;4.57;1.98;;;;;;;30.12;3.35;101345.34;4995673;28;20099;-62
2021/03/29 08:05:44;;;;;;;7.28;2.05;;;;;;;27.63;4.55;101288.63;5009580;28;20117;-62
2021/03/29 08:08:27;;;;;;;11.85;2.65;;;;;;;25.41;5.87;101362.84;4993654;28;20041;-61
2021/03/29 08:10:57;;;;;;;6.72;2.40;;;;;;;22.63;6.99;101337.59;5001855;28;20133;-63
2021/03/29 08:14:00;;;;;;;7.90;2.40;;;;;;;20.53;8.26;101349.13;5010149;28;20044;-62
2021/03/29 08:16:27;;;;;;;7.53;2.58;;;;;;;18.34;9.44;101363.00;4995807;28;20046;-61
2021/03/29 08:19:05;;;;;;;4.68;2.15;;;;;;;16.64;10.76;101370.16;5008959;28;20041;-62
2021/03/29 08:21:56;;;;;;;8.55;2.50;;;;;;;15.44;11.73;101367.81;5007636;28;20042;-62
2021/03/29 08:24:28;;;;;;;4.93;2.80;;;;;;;14.37;12.51;101376.50;4995250;28;20077;-63
2021/03/29 08:26:57;;;;;;;11.52;3.10;;;;;;;13.20;13.32;101319.06;5009256;28;20034;-62
2021/03/29 08:29:28;;;;;;;37.47;22.00;;;;;;;12.99;14.24;101365.25;5008731;28;20132;-62
2021/03/29 08:32:00;;;;;;;18.02;9.93;;;;;;;12.60;14.95;101373.13;5008672;28;20034;-61
2021/03/29 08:34:30;;;;;;;20.48;11.48;;;;;;;12.17;15.26;101367.78;5009488;28;20048;-62
2021/03/29 08:36:59;;;;;;;29.45;16.52;;;;;;;11.88;16.19;101374.00;5009069;28;20038;-61
2021/03/29 08:39:29;;;;;;;12.70;5.22;;;;;;;11.76;15.83;101366.69;5009614;28;20041;-61
2021/03/29 08:41:55;;;;;;;9.20;3.45;;;;;;;11.27;16.44;101306.16;5008950;28;20458;-61
2021/03/29 08:44:21;;;;;;;8.32;2.83;;;;;;;11.48;16.32;101361.19;5011488;28;20149;-62
2021/03/29 08:46:48;;;;;;;7.63;2.70;;;;;;;11.06;16.52;101328.75;5013438;28;20048;-62
2021/03/29 08:49:14;;;;;;;7.32;2.90;;;;;;;10.95;16.94;101352.66;5012660;28;20041;-64
2021/03/29 08:51:39;;;;;;;7.07;3.42;;;;;;;10.59;17.79;101361.84;5012386;28;20038;-62
2021/03/29 08:54:13;;;;;;;7.15;3.63;;;;;;;10.33;18.41;101348.94;5005080;28;20128;-61
2021/03/29 08:56:54;;;;;;;5.13;3.40;;;;;;;10.36;18.48;101363.09;5012657;28;20042;-62
2021/03/29 08:59:26;;;;;;;9.77;2.80;;;;;;;10.68;18.22;101392.59;4994735;28;20177;-64
2021/03/29 09:01:52;;;;;;;5.97;2.42;;;;;;;10.74;17.64;101385.09;5012951;28;20493;-62
2021/03/29 09:04:18;;;;;;;11.18;2.90;;;;;;;10.42;17.59;101312.78;5012576;28;20045;-62
2021/03/29 09:06:43;;;;;;;7.00;3.08;;;;;;;10.89;18.03;101382.50;5012470;28;20334;-61
2021/03/29 09:09:17;;;;;;;10.48;2.70;;;;;;;10.93;18.54;101397.44;5012836;28;20553;-61
2021/03/29 09:11:46;;;;;;;7.28;2.83;;;;;;;10.91;18.45;101391.31;5012785;28;20045;-62
2021/03/29 09:14:15;;;;;;;7.85;2.38;;;;;;;10.93;17.89;101376.00;5010544;28;20474;-63
2021/03/29 09:16:40;;;;;;;11.25;3.05;;;;;;;10.69;18.44;101322.88;5012689;28;20042;-63
2021/03/29 09:19:17;;;;;;;5.55;3.03;;;;;;;11.16;18.38;101381.84;5012127;28;20577;-62
2021/03/29 09:21:44;;;;;;;9.50;2.80;;;;;;;11.15;17.73;101391.69;5010835;28;20196;-61
2021/03/29 09:24:23;;;;;;;6.10;2.35;;;;;;;11.26;17.83;101371.47;5011212;28;20069;-63
2021/03/29 09:26:56;;;;;;;8.43;3.03;;;;;;;11.27;17.96;101379.41;5011889;28;20056;-63
2021/03/29 09:29:33;;;;;;;9.50;2.90;;;;;;;11.22;18.33;101384.16;5012239;28;20034;-63
2021/03/29 09:32:01;;;;;;;3.55;2.33;;;;;;;11.12;17.90;101383.00;5012350;28;20038;-63
2021/03/29 09:34:27;;;;;;;6.93;2.70;;;;;;;11.24;17.87;101387.63;5011180;28;20036;-61
2021/03/29 09:36:53;;;;;;;7.60;3.00;;;;;;;11.16;17.70;101352.38;5012167;28;20045;-61
2021/03/29 09:39:18;;;;;;;5.00;2.67;;;;;;;11.31;17.52;101370.22;5012294;28;20061;-64
2021/03/29 09:41:51;;;;;;;6.18;2.35;;;;;;;11.04;17.84;101336.03;5012078;28;20056;-63
2021/03/29 09:44:24;;;;;;;4.35;2.22;;;;;;;11.30;17.90;101376.53;5010904;28;20037;-62
2021/03/29 09:46:54;;;;;;;7.32;2.90;;;;;;;11.19;17.85;101366.44;5010985;28;20117;-63
2021/03/29 09:49:19;;;;;;;6.03;2.70;;;;;;;11.28;17.64;101375.75;5012199;28;20048;-63
2021/03/29 09:51:50;;;;;;;13.13;3.20;;;;;;;11.32;17.69;101379.13;5011989;28;20409;-63
2021/03/29 09:54:32;;;;;;;6.85;2.58;;;;;;;11.24;17.93;101379.59;5011292;28;20470;-63
2021/03/29 09:57:10;;;;;;;7.00;2.38;;;;;;;11.15;17.60;101386.34;5009354;28;20049;-63
2021/03/29 09:59:36;;;;;;;3.78;2.38;;;;;;;11.03;17.84;101361.13;5007851;28;20033;-61
2021/03/29 10:02:29;;;;;;;7.35;2.20;;;;;;;11.11;18.16;101381.28;5003313;28;20620;-62
2021/03/29 10:05:04;;;;;;;6.85;2.47;;;;;;;11.03;18.40;101361.13;5010294;28;20041;-62
2021/03/29 10:07:29;;;;;;;7.85;2.40;;;;;;;10.90;18.07;101350.25;5010860;28;20040;-65
2021/03/29 10:10:05;;;;;;;10.23;2.60;;;;;;;10.98;18.66;101381.97;5011405;28;20038;-63
2021/03/29 10:12:32;;;;;;;6.53;2.45;;;;;;;11.05;18.38;101393.19;5011527;28;20042;-65
2021/03/29 10:15:11;;;;;;;6.93;2.67;;;;;;;11.05;18.41;101393.19;5011334;28;20045;-62
2021/03/29 10:17:36;;;;;;;6.38;2.17;;;;;;;11.04;18.14;101400.34;5010817;28;20462;-63
2021/03/29 10:20:08;;;;;;;5.30;1.90;;;;;;;10.77;18.59;101365.31;5011064;28;20128;-66
2021/03/29 10:22:34;;;;;;;5.72;2.25;;;;;;;10.91;18.44;101377.91;5010883;28;20142;-64
2021/03/29 10:25:14;;;;;;;9.18;2.47;;;;;;;10.85;18.92;101375.56;5010794;28;20146;-63
2021/03/29 10:27:39;;;;;;;4.85;2.10;;;;;;;11.06;18.75;101393.09;5009982;28;20041;-63
2021/03/29 10:30:07;;;;;;;8.23;2.50;;;;;;;10.93;18.31;101407.28;5010821;28;20510;-63
2021/03/29 10:32:33;;;;;;;5.72;1.98;;;;;;;10.66;18.66;101362.34;5009319;28;20038;-63
2021/03/29 10:34:58;;;;;;;5.00;2.47;;;;;;;10.83;18.91;101391.75;5009514;28;20029;-61
2021/03/29 10:37:32;;;;;;;5.85;2.60;;;;;;;10.75;18.56;101384.13;5010401;28;20044;-65
2021/03/29 10:39:59;;;;;;;9.68;2.75;;;;;;;10.80;18.73;101402.63;4998622;28;20041;-69
2021/03/29 10:42:36;;;;;;;4.82;2.50;;;;;;;10.58;19.37;101386.88;5011188;28;20040;-65
2021/03/29 10:45:07;;;;;;;6.50;2.30;;;;;;;10.58;19.34;101398.47;5010316;28;20072;-70
2021/03/29 10:47:33;;;;;;;7.53;2.70;;;;;;;10.57;18.89;101387.84;5010683;28;20037;-71
2021/03/29 10:49:59;;;;;;;7.53;3.38;;;;;;;10.59;19.14;101377.91;5010763;28;20030;-74
2021/03/29 10:52:24;;;;;;;16.35;4.63;;;;;;;10.71;19.18;101408.50;5010274;28;20042;-76
2021/03/29 10:54:52;;;;;;;7.20;2.50;;;;;;;10.68;19.04;101393.47;5010428;28;20044;-71
2021/03/29 10:57:18;;;;;;;7.55;2.63;;;;;;;10.81;18.88;101398.13;5011154;28;20034;-76
2021/03/29 10:59:44;;;;;;;6.65;2.50;;;;;;;10.84;18.73;101408.66;5010260;28;20470;-76
2021/03/29 11:02:10;;;;;;;5.28;2.40;;;;;;;10.84;18.72;101403.31;5009766;28;20036;-74
2021/03/29 11:04:35;;;;;;;6.40;2.65;;;;;;;10.76;18.85;101393.91;5011066;28;20340;-76
2021/03/29 11:07:01;;;;;;;6.28;2.50;;;;;;;10.77;18.84;101394.78;5011171;28;20068;-75
2021/03/29 11:09:28;;;;;;;8.68;1.92;;;;;;;10.77;18.66;101411.69;5012290;28;20026;-73
2021/03/29 11:11:54;;;;;;;6.78;2.50;;;;;;;10.62;19.23;101399.19;5011880;28;20026;-75
2021/03/29 11:14:20;;;;;;;4.80;2.45;;;;;;;10.45;19.46;101406.31;5010672;28;20087;-73
2021/03/29 11:16:49;;;;;;;7.50;2.70;;;;;;;10.39;19.20;101393.25;5010955;28;20037;-62
2021/03/29 11:19:14;;;;;;;6.03;2.42;;;;;;;10.25;19.48;101361.00;5010858;28;20072;-73
2021/03/29 11:21:40;;;;;;;5.80;2.35;;;;;;;10.46;19.36;101391.97;5010258;28;20109;-76
2021/03/29 11:24:06;;;;;;;6.03;2.50;;;;;;;10.46;19.14;101401.81;5010812;28;20055;-76
2021/03/29 11:26:31;;;;;;;10.30;2.85;;;;;;;10.44;19.21;101399.25;5010804;28;20048;-78
2021/03/29 11:28:57;;;;;;;6.85;2.55;;;;;;;10.38;19.46;101396.88;5010747;28;20037;-76
2021/03/29 11:31:24;;;;;;;8.20;2.60;;;;;;;10.30;19.55;101373.19;5010587;28;20398;-78
2021/03/29 11:33:51;;;;;;;8.27;2.90;;;;;;;10.28;19.81;101383.13;5010607;28;20456;-78
2021/03/29 11:36:17;;;;;;;7.35;2.00;;;;;;;10.22;19.37;101367.38;5013558;28;20052;-58